Time;durP1;ratioP1;P1;durP2;ratioP2;P2;SDS_P1;SDS_P2;PMS_P1;PMS_P2;Temp;Humidity;BMP_temperature;BMP_pressure;BME280_temperature;BME280_humidity;BME280_pressure;Samples;Min_cycle;Max_cycle;Signal;HPM_P1;HPM_P2
2022/04/13 00:00:09;;;;;;;7.88;4.55;;;;;;;6.31;84.20;99262.88;5046495;28;20061;-53
2022/04/13 00:02:38;;;;;;;8.05;4.97;;;;;;;6.27;84.39;99258.69;5034486;28;20106;-51
2022/04/13 00:05:05;;;;;;;7.25;5.25;;;;;;;6.32;84.64;99268.88;5047926;28;20516;-49
2022/04/13 00:07:31;;;;;;;9.88;6.25;;;;;;;6.34;84.26;99267.09;5046471;28;20041;-49
2022/04/13 00:09:57;;;;;;;10.70;7.43;;;;;;;6.31;84.58;99249.97;5048079;28;20103;-50
2022/04/13 00:12:23;;;;;;;9.95;6.35;;;;;;;6.35;84.43;99267.06;5046771;28;20072;-48
2022/04/13 00:14:49;;;;;;;7.75;4.60;;;;;;;6.27;84.38;99248.34;5047696;28;20056;-47
2022/04/13 00:17:14;;;;;;;7.07;4.85;;;;;;;6.34;84.61;99260.22;5053470;28;20047;-52
2022/04/13 00:19:40;;;;;;;8.00;5.45;;;;;;;6.37;84.15;99265.31;5047691;28;20044;-48
2022/04/13 00:22:05;;;;;;;9.32;4.85;;;;;;;6.37;84.55;99264.47;5047744;28;20060;-52
2022/04/13 00:24:31;;;;;;;7.97;5.43;;;;;;;6.35;84.62;99256.75;5080048;28;20052;-50
2022/04/13 00:26:57;;;;;;;8.43;5.90;;;;;;;6.36;84.29;99258.44;5046673;28;20155;-53
2022/04/13 00:29:29;;;;;;;8.20;5.20;;;;;;;6.36;84.43;99261.03;5046705;28;20052;-49
2022/04/13 00:31:58;;;;;;;8.77;4.68;;;;;;;6.33;84.10;99261.09;5027101;28;20450;-49
2022/04/13 00:34:25;;;;;;;9.50;5.38;;;;;;;6.32;84.45;99261.16;5046051;28;20103;-48
2022/04/13 00:36:50;;;;;;;7.60;4.65;;;;;;;6.31;84.56;99257.72;5046617;28;20044;-53
2022/04/13 00:39:16;;;;;;;7.10;4.78;;;;;;;6.23;84.10;99240.69;5047290;28;20058;-53
2022/04/13 00:41:42;;;;;;;7.35;4.65;;;;;;;6.32;84.40;99258.56;5047411;28;20526;-49
2022/04/13 00:44:10;;;;;;;7.80;5.03;;;;;;;6.24;84.60;99247.56;5049204;28;20048;-51
2022/04/13 00:46:36;;;;;;;8.60;4.90;;;;;;;6.26;84.42;99262.13;5051511;28;20064;-50
2022/04/13 00:49:04;;;;;;;6.18;4.10;;;;;;;6.25;84.69;99260.44;5051652;28;20063;-50
2022/04/13 00:51:29;;;;;;;8.23;4.80;;;;;;;6.22;84.43;99273.44;5051476;28;20045;-54
2022/04/13 00:53:59;;;;;;;7.40;4.45;;;;;;;6.21;84.56;99261.41;5050453;28;20416;-51
2022/04/13 00:56:27;;;;;;;6.30;4.43;;;;;;;6.21;83.96;99265.72;5050285;28;20459;-51
2022/04/13 00:58:55;;;;;;;5.60;3.75;;;;;;;6.20;84.40;99256.25;5048335;28;20041;-53
2022/04/13 01:01:22;;;;;;;6.25;4.00;;;;;;;6.19;84.07;99254.56;5049772;28;20099;-47
2022/04/13 01:03:52;;;;;;;6.75;4.25;;;;;;;6.19;84.59;99258.00;5049836;28;20740;-51
2022/04/13 01:06:18;;;;;;;;;;;;;;;6.19;84.14;99263.16;5032905;28;20091;-48
2022/04/13 01:08:49;;;;;;;6.78;4.07;;;;;;;6.17;83.98;99266.69;5043839;28;19925;-51
2022/04/13 01:11:16;;;;;;;6.13;3.90;;;;;;;6.15;84.10;99264.13;5049903;28;20052;-51
2022/04/13 01:13:42;;;;;;;6.35;4.03;;;;;;;6.14;84.59;99261.56;5051055;28;20033;-51
2022/04/13 01:16:08;;;;;;;7.25;4.38;;;;;;;6.11;84.36;99254.75;5053968;28;20052;-49
2022/04/13 01:18:34;;;;;;;6.40;4.32;;;;;;;6.12;84.37;99259.03;5050054;28;20047;-49
2022/04/13 01:21:00;;;;;;;5.55;3.95;;;;;;;6.12;84.08;99259.03;5050829;28;20558;-49
2022/04/13 01:23:27;;;;;;;6.22;3.80;;;;;;;6.10;84.36;99259.94;5049834;28;20036;-52
2022/04/13 01:25:55;;;;;;;8.18;4.00;;;;;;;6.10;84.68;99265.97;5050969;28;20170;-49
2022/04/13 01:28:22;;;;;;;6.15;3.90;;;;;;;6.10;84.45;99260.78;5082988;28;20052;-49
2022/04/13 01:30:49;;;;;;;8.23;4.38;;;;;;;6.01;84.53;99250.69;5049694;28;20045;-53
2022/04/13 01:33:15;;;;;;;6.32;3.90;;;;;;;6.11;84.73;99269.38;5082415;28;20040;-51
2022/04/13 01:35:40;;;;;;;7.10;4.15;;;;;;;6.08;84.50;99257.38;5050517;28;20412;-49
2022/04/13 01:38:07;;;;;;;5.43;3.60;;;;;;;6.09;84.38;99268.56;5049656;28;20072;-51
2022/04/13 01:40:33;;;;;;;7.50;3.88;;;;;;;6.08;84.69;99264.28;5032156;28;20497;-52
2022/04/13 01:42:59;;;;;;;7.88;4.30;;;;;;;6.11;84.53;99264.22;5043660;28;20087;-55
2022/04/13 01:45:25;;;;;;;6.72;4.45;;;;;;;6.10;84.62;99265.97;5083941;28;20041;-53
2022/04/13 01:47:51;;;;;;;6.30;4.32;;;;;;;6.11;83.95;99271.97;5065874;28;20509;-52
2022/04/13 01:50:18;;;;;;;8.52;4.00;;;;;;;6.10;83.97;99268.53;5050615;28;20044;-53
2022/04/13 01:52:44;;;;;;;6.93;3.50;;;;;;;6.03;83.77;99264.38;5049524;28;20049;-49
2022/04/13 01:55:11;;;;;;;7.38;4.30;;;;;;;6.07;84.03;99271.16;5049763;28;20045;-51
2022/04/13 01:57:41;;;;;;;6.80;4.00;;;;;;;6.02;83.99;99264.44;5049591;28;20110;-50
2022/04/13 02:00:09;;;;;;;6.30;4.13;;;;;;;6.13;84.03;99280.50;5030899;28;20068;-52
2022/04/13 02:02:35;;;;;;;6.47;4.57;;;;;;;6.15;83.70;99279.59;5040986;28;20048;-51
2022/04/13 02:05:01;;;;;;;5.80;4.03;;;;;;;6.16;84.08;99280.44;5043282;28;20757;-51
2022/04/13 02:07:29;;;;;;;7.47;4.35;;;;;;;6.15;83.98;99282.19;5048078;28;20033;-50
2022/04/13 02:09:55;;;;;;;6.47;4.20;;;;;;;6.15;83.83;99277.03;5050180;28;20039;-50
2022/04/13 02:12:21;;;;;;;7.22;4.35;;;;;;;6.06;83.79;99272.09;5050157;28;20512;-51
2022/04/13 02:14:47;;;;;;;6.47;4.10;;;;;;;6.14;83.91;99285.63;5082236;28;20047;-52
2022/04/13 02:17:16;;;;;;;6.32;3.75;;;;;;;6.13;83.78;99289.09;5056679;28;20044;-50
2022/04/13 02:19:45;;;;;;;7.70;4.47;;;;;;;6.12;83.15;99284.84;5048447;28;20509;-51
2022/04/13 02:22:11;;;;;;;7.45;4.50;;;;;;;6.10;83.33;99296.06;5049934;28;20447;-51
2022/04/13 02:24:40;;;;;;;7.30;4.28;;;;;;;6.07;83.65;99293.56;5049446;28;20036;-51
2022/04/13 02:27:09;;;;;;;9.13;4.43;;;;;;;6.08;83.90;99296.09;5049517;28;20044;-53
2022/04/13 02:29:36;;;;;;;;;;;;;;;6.06;83.34;99290.16;5048773;28;20079;-54
2022/04/13 02:32:03;;;;;;;8.18;4.30;;;;;;;5.92;83.78;99271.53;5049877;28;19917;-53
2022/04/13 02:34:29;;;;;;;9.55;5.32;;;;;;;6.03;83.42;99294.50;5049717;28;20067;-51
2022/04/13 02:36:55;;;;;;;8.48;5.28;;;;;;;5.91;83.68;99278.41;5049784;28;20504;-51
2022/04/13 02:39:20;;;;;;;7.63;4.82;;;;;;;5.88;83.53;99278.47;5049806;28;20041;-49
2022/04/13 02:41:46;;;;;;;7.80;4.70;;;;;;;6.04;83.70;99302.22;5049763;28;20075;-52
2022/04/13 02:44:12;;;;;;;8.80;4.60;;;;;;;6.06;83.79;99303.03;5049430;28;20052;-50
2022/04/13 02:46:38;;;;;;;7.90;4.60;;;;;;;6.07;83.95;99309.88;5049443;28;20037;-49
2022/04/13 02:49:03;;;;;;;6.63;4.28;;;;;;;6.03;84.10;99308.25;5049177;28;20483;-52
2022/04/13 02:51:29;;;;;;;11.30;4.82;;;;;;;6.07;83.89;99309.06;5046322;28;20040;-52
2022/04/13 02:53:55;;;;;;;6.97;4.82;;;;;;;6.05;83.50;99301.34;5048795;28;20041;-51
2022/04/13 02:56:20;;;;;;;6.53;4.57;;;;;;;6.08;83.99;99310.72;5061375;28;20074;-51
2022/04/13 02:58:46;;;;;;;8.23;5.13;;;;;;;6.09;83.33;99313.28;5049705;28;20420;-50
2022/04/13 03:01:12;;;;;;;8.90;5.03;;;;;;;6.10;83.62;99311.56;5049285;28;20551;-48
2022/04/13 03:03:38;;;;;;;8.48;5.13;;;;;;;6.11;83.40;99318.41;5049032;28;20076;-51
2022/04/13 03:06:03;;;;;;;8.55;4.40;;;;;;;6.12;83.53;99314.97;5048874;28;20068;-50
2022/04/13 03:08:29;;;;;;;9.68;5.32;;;;;;;6.12;83.26;99314.97;5046958;28;20044;-50
2022/04/13 03:10:56;;;;;;;8.10;4.90;;;;;;;6.14;83.88;99328.66;5048876;28;20037;-52
2022/04/13 03:13:22;;;;;;;10.32;5.00;;;;;;;6.15;83.16;99315.75;5048489;28;20044;-50
2022/04/13 03:15:47;;;;;;;7.15;4.60;;;;;;;6.19;83.49;99321.66;5081499;28;20045;-49
2022/04/13 03:18:13;;;;;;;8.55;4.57;;;;;;;6.17;83.33;99324.31;5048809;28;20055;-53
2022/04/13 03:20:39;;;;;;;10.32;5.22;;;;;;;6.17;82.97;99315.72;5064083;28;20121;-53
2022/04/13 03:23:04;;;;;;;9.93;4.93;;;;;;;6.16;83.42;99322.59;5048501;28;20550;-49
2022/04/13 03:25:31;;;;;;;9.98;5.65;;;;;;;6.15;83.09;99320.03;5048655;28;20037;-52
2022/04/13 03:27:56;;;;;;;9.05;4.45;;;;;;;6.10;83.40;99306.41;5048712;28;20183;-51
2022/04/13 03:30:23;;;;;;;6.97;4.30;;;;;;;6.20;83.12;99321.66;5048609;28;20127;-49
2022/04/13 03:32:50;;;;;;;10.43;4.95;;;;;;;6.16;82.84;99324.34;5048008;28;20044;-51
2022/04/13 03:35:16;;;;;;;7.70;4.50;;;;;;;6.23;82.86;99329.31;5048514;28;20128;-48
2022/04/13 03:37:42;;;;;;;7.90;4.90;;;;;;;6.22;82.71;99339.69;5048396;28;20124;-54
2022/04/13 03:40:09;;;;;;;7.93;4.47;;;;;;;6.03;82.63;99307.41;5048157;28;20048;-48
2022/04/13 03:42:38;;;;;;;9.43;5.13;;;;;;;6.22;83.05;99350.88;5048184;28;20146;-49
2022/04/13 03:45:05;;;;;;;10.02;4.82;;;;;;;6.23;82.95;99344.78;5046866;28;20073;-49
2022/04/13 03:47:31;;;;;;;8.27;4.90;;;;;;;6.26;82.78;99347.31;5048203;28;20045;-51
2022/04/13 03:49:57;;;;;;;9.13;4.40;;;;;;;6.27;82.66;99345.59;5048321;28;20116;-53
2022/04/13 03:52:23;;;;;;;7.53;4.25;;;;;;;6.29;82.78;99354.13;5046840;28;20086;-49
2022/04/13 03:54:49;;;;;;;9.45;4.82;;;;;;;6.31;82.18;99354.97;5048221;28;20118;-49
2022/04/13 03:57:14;;;;;;;9.27;5.47;;;;;;;6.34;82.33;99353.16;5047138;28;20036;-48
2022/04/13 03:59:40;;;;;;;9.38;4.70;;;;;;;6.37;81.84;99352.25;5045850;28;20791;-51
2022/04/13 04:02:06;;;;;;;8.57;4.82;;;;;;;6.37;82.17;99354.81;5048052;28;20052;-49
2022/04/13 04:04:31;;;;;;;9.30;5.18;;;;;;;6.36;81.69;99358.28;5047708;28;20406;-49
2022/04/13 04:06:57;;;;;;;8.23;4.85;;;;;;;6.41;82.14;99361.63;5051717;28;20048;-51
2022/04/13 04:09:23;;;;;;;8.93;5.15;;;;;;;6.30;81.68;99350.69;5046543;28;20044;-49
2022/04/13 04:11:49;;;;;;;9.52;5.05;;;;;;;6.42;81.42;99357.31;5047742;28;20048;-51
2022/04/13 04:14:15;;;;;;;8.57;5.03;;;;;;;6.42;81.35;99355.56;5046665;28;20036;-50
2022/04/13 04:16:40;;;;;;;9.68;5.88;;;;;;;6.48;81.21;99365.75;5047989;28;20037;-50
2022/04/13 04:19:06;;;;;;;10.10;5.03;;;;;;;6.47;81.54;99371.81;5047656;28;20041;-51
2022/04/13 04:21:32;;;;;;;9.77;5.70;;;;;;;6.48;81.13;99359.75;5047617;28;20045;-50
2022/04/13 04:23:58;;;;;;;9.70;5.57;;;;;;;6.47;80.86;99364.06;5047602;28;20528;-51
2022/04/13 04:26:23;;;;;;;8.80;5.60;;;;;;;6.50;80.70;99365.72;5026638;28;20099;-49
2022/04/13 04:28:49;;;;;;;8.88;4.97;;;;;;;6.51;80.77;99372.56;5072480;28;20040;-50
2022/04/13 04:31:49;;;;;;;9.77;5.35;;;;;;;6.52;80.35;99366.53;5046920;28;20040;-53
2022/04/13 04:34:03;;;;;;;10.32;5.65;;;;;;;6.51;80.66;99376.00;5053106;28;20037;-50
2022/04/13 04:36:29;;;;;;;12.63;5.80;;;;;;;6.52;80.41;99374.28;5066766;28;20055;-52
2022/04/13 04:38:55;;;;;;;9.75;5.20;;;;;;;6.35;80.25;99334.19;5045984;28;20033;-49
2022/04/13 04:41:20;;;;;;;9.88;5.22;;;;;;;6.56;80.36;99369.00;5046055;28;20044;-51
2022/04/13 04:43:46;;;;;;;9.85;5.47;;;;;;;6.50;79.76;99356.22;5080058;28;20156;-51
2022/04/13 04:46:12;;;;;;;10.27;5.72;;;;;;;6.63;79.97;99374.88;5047044;28;20048;-54
2022/04/13 04:48:42;;;;;;;8.63;5.40;;;;;;;6.64;79.42;99376.59;5079593;28;20508;-50
2022/04/13 04:51:08;;;;;;;9.90;5.55;;;;;;;6.67;79.47;99379.94;5044774;28;20048;-48
2022/04/13 04:53:34;;;;;;;25.10;6.93;;;;;;;6.67;79.66;99379.09;5047673;28;20037;-53
2022/04/13 04:56:00;;;;;;;10.98;5.50;;;;;;;6.58;79.17;99369.84;5047586;28;20045;-48
2022/04/13 04:58:26;;;;;;;12.15;6.10;;;;;;;6.53;79.34;99369.09;5043859;28;20048;-53
2022/04/13 05:00:53;;;;;;;13.82;5.97;;;;;;;6.72;79.03;99395.31;5078976;28;20065;-53
2022/04/13 05:03:19;;;;;;;11.25;5.68;;;;;;;6.71;79.22;99397.06;5045766;28;20516;-50
2022/04/13 05:05:45;;;;;;;12.57;6.30;;;;;;;6.57;78.84;99375.03;5058912;28;20633;-51
2022/04/13 05:08:13;;;;;;;9.35;5.80;;;;;;;6.75;78.79;99398.69;5050249;28;20049;-49
2022/04/13 05:10:39;;;;;;;9.65;5.47;;;;;;;6.74;78.47;99398.75;5053516;28;20044;-52
2022/04/13 05:13:06;;;;;;;11.73;5.75;;;;;;;6.65;78.01;99391.19;5060905;28;20036;-53
2022/04/13 05:15:32;;;;;;;14.77;6.88;;;;;;;6.69;78.38;99395.41;5047173;28;20041;-49
2022/04/13 05:17:58;;;;;;;11.35;5.78;;;;;;;6.84;77.81;99407.13;5048182;28;20164;-52
2022/04/13 05:20:25;;;;;;;19.33;7.05;;;;;;;6.74;77.49;99389.25;5064294;28;20044;-54
2022/04/13 05:22:50;;;;;;;13.48;6.25;;;;;;;6.71;77.50;99378.13;5052827;28;20548;-53
2022/04/13 05:25:16;;;;;;;10.95;5.47;;;;;;;6.92;77.36;99407.78;5050226;28;20045;-51
2022/04/13 05:27:44;;;;;;;10.52;6.05;;;;;;;6.95;77.21;99402.53;5047234;28;20048;-50
2022/04/13 05:30:10;;;;;;;10.00;5.47;;;;;;;6.88;76.94;99386.31;5062700;28;20037;-52
2022/04/13 05:32:57;;;;;;;8.23;4.68;;;;;;;7.00;76.77;99404.13;5063261;28;20697;-54
2022/04/13 05:35:27;;;;;;;11.27;5.53;;;;;;;7.00;76.34;99398.09;5051904;28;20200;-51
2022/04/13 05:37:56;;;;;;;15.85;6.07;;;;;;;7.04;76.43;99408.34;5048511;28;20063;-57
2022/04/13 05:40:23;;;;;;;10.13;5.37;;;;;;;6.98;76.29;99389.53;5049791;28;20052;-53
2022/04/13 05:42:50;;;;;;;9.00;4.97;;;;;;;7.13;75.70;99413.25;5042766;28;20646;-54
2022/04/13 05:45:17;;;;;;;11.35;5.03;;;;;;;7.12;75.78;99414.16;5049263;28;20032;-55
2022/04/13 05:47:43;;;;;;;10.02;5.53;;;;;;;7.08;75.35;99394.44;5050607;28;20136;-51
2022/04/13 05:50:10;;;;;;;9.52;4.85;;;;;;;7.06;74.86;99396.22;5052800;28;20450;-53
2022/04/13 05:52:37;;;;;;;9.70;5.35;;;;;;;7.15;74.86;99421.00;5061288;28;20069;-54
2022/04/13 05:55:03;;;;;;;10.52;5.00;;;;;;;7.16;74.75;99422.69;5029248;28;20045;-54
2022/04/13 05:57:28;;;;;;;8.95;4.88;;;;;;;7.16;74.68;99427.88;5026171;28;20679;-55
2022/04/13 05:59:54;;;;;;;8.82;4.55;;;;;;;7.17;74.54;99427.81;5043639;28;20068;-51
2022/04/13 06:02:20;;;;;;;10.63;5.43;;;;;;;7.07;74.35;99423.75;5030091;28;20071;-53
2022/04/13 06:04:46;;;;;;;8.95;4.97;;;;;;;7.12;74.74;99437.41;5029737;28;20041;-56
2022/04/13 06:07:12;;;;;;;13.82;5.30;;;;;;;7.05;74.51;99422.09;5032954;28;20039;-48
2022/04/13 06:09:37;;;;;;;9.63;5.40;;;;;;;7.04;74.64;99421.25;5081573;28;20041;-51
2022/04/13 06:12:04;;;;;;;12.00;5.43;;;;;;;7.09;74.78;99431.47;5049059;28;20048;-50
2022/04/13 06:14:30;;;;;;;9.10;5.38;;;;;;;7.20;74.61;99442.41;5046715;28;20102;-51
2022/04/13 06:16:55;;;;;;;9.18;5.15;;;;;;;7.21;74.25;99447.56;5080653;28;20049;-53
2022/04/13 06:19:21;;;;;;;8.65;4.80;;;;;;;7.19;74.34;99446.72;5048681;28;20123;-53
2022/04/13 06:21:47;;;;;;;14.52;5.28;;;;;;;7.20;74.45;99445.84;5048698;28;20432;-50
2022/04/13 06:24:12;;;;;;;9.80;4.88;;;;;;;7.19;74.12;99438.13;5048970;28;20093;-53
2022/04/13 06:26:38;;;;;;;7.90;4.93;;;;;;;7.10;74.14;99420.25;5048964;28;20127;-51
2022/04/13 06:29:04;;;;;;;8.40;5.10;;;;;;;7.10;74.14;99434.03;5049455;28;20040;-52
2022/04/13 06:31:30;;;;;;;9.95;5.38;;;;;;;7.19;73.73;99446.72;5049606;28;20101;-55
2022/04/13 06:33:56;;;;;;;8.65;5.25;;;;;;;7.15;73.96;99429.59;5049766;28;20377;-49
2022/04/13 06:36:22;;;;;;;9.75;5.65;;;;;;;7.27;73.62;99445.69;5048541;28;20106;-53
2022/04/13 06:38:48;;;;;;;10.80;5.53;;;;;;;7.29;73.85;99456.84;5049544;28;20076;-51
2022/04/13 06:41:13;;;;;;;10.30;6.13;;;;;;;7.37;73.77;99462.69;5049120;28;20527;-52
2022/04/13 06:43:40;;;;;;;10.52;5.85;;;;;;;7.35;73.41;99465.31;5049551;28;20044;-51
2022/04/13 06:46:06;;;;;;;9.45;5.38;;;;;;;7.38;73.51;99477.31;5048148;28;20051;-50
2022/04/13 06:48:32;;;;;;;12.10;6.15;;;;;;;7.42;73.55;99478.94;5048044;28;20048;-52
2022/04/13 06:50:57;;;;;;;15.52;5.95;;;;;;;7.47;73.29;99471.91;5031707;28;20041;-53
2022/04/13 06:53:24;;;;;;;10.07;5.30;;;;;;;7.51;73.14;99479.56;5048235;28;20044;-51
2022/04/13 06:55:50;;;;;;;13.43;6.20;;;;;;;7.52;73.13;99473.50;5049409;28;20527;-50
2022/04/13 06:58:16;;;;;;;10.18;5.75;;;;;;;7.53;72.83;99490.72;5045870;28;20219;-52
2022/04/13 07:00:42;;;;;;;19.17;6.00;;;;;;;7.55;72.77;99478.56;5049131;28;20067;-50
2022/04/13 07:03:09;;;;;;;11.73;5.38;;;;;;;7.48;72.84;99463.28;5049010;28;20041;-50
2022/04/13 07:05:34;;;;;;;12.90;5.97;;;;;;;7.58;72.42;99470.75;5047713;28;20053;-54
2022/04/13 07:08:02;;;;;;;10.20;5.50;;;;;;;7.78;72.29;99490.09;5080830;28;20102;-52
2022/04/13 07:10:32;;;;;;;15.07;6.35;;;;;;;7.74;71.90;99473.78;5048905;28;20095;-53
2022/04/13 07:12:58;;;;;;;13.73;5.82;;;;;;;7.81;71.63;99477.91;5047518;28;20552;-56
2022/04/13 07:15:24;;;;;;;14.15;5.63;;;;;;;7.90;71.76;99493.19;5049200;28;20123;-53
2022/04/13 07:17:49;;;;;;;11.18;5.50;;;;;;;7.93;71.35;99493.13;5049212;28;20037;-49
2022/04/13 07:20:16;;;;;;;10.45;5.53;;;;;;;7.87;71.49;99488.09;5049021;28;20066;-54
2022/04/13 07:22:46;;;;;;;14.45;5.45;;;;;;;7.92;71.23;99499.16;5048757;28;20653;-50
2022/04/13 07:25:12;;;;;;;10.75;5.40;;;;;;;7.92;71.50;99503.50;5048706;28;20037;-48
2022/04/13 07:27:38;;;;;;;12.52;6.57;;;;;;;7.97;71.33;99496.47;5080843;28;20045;-51
2022/04/13 07:30:04;;;;;;;15.32;6.65;;;;;;;8.00;70.93;99505.00;5048662;28;20582;-51
2022/04/13 07:32:30;;;;;;;15.98;6.15;;;;;;;7.98;70.62;99491.25;5048540;28;20045;-52
2022/04/13 07:34:58;;;;;;;14.75;6.22;;;;;;;8.09;70.97;99509.94;5048463;28;20098;-52
2022/04/13 07:37:25;;;;;;;11.00;5.82;;;;;;;8.03;70.87;99498.88;5048520;28;20079;-54
2022/04/13 07:39:52;;;;;;;11.40;5.20;;;;;;;8.12;70.63;99513.31;5048476;28;20110;-50
2022/04/13 07:42:21;;;;;;;20.38;6.28;;;;;;;8.14;70.64;99511.53;5047403;28;20045;-53
2022/04/13 07:44:47;;;;;;;15.18;5.82;;;;;;;8.19;70.59;99513.13;5047405;28;20044;-50
2022/04/13 07:47:14;;;;;;;14.57;5.70;;;;;;;8.23;70.24;99512.13;5047217;28;20045;-50
2022/04/13 07:49:43;;;;;;;12.40;5.57;;;;;;;8.26;69.98;99519.00;5046856;28;20132;-54
2022/04/13 07:52:10;;;;;;;11.18;5.97;;;;;;;8.16;69.79;99496.81;5048412;28;20036;-52
2022/04/13 07:54:36;;;;;;;11.32;5.82;;;;;;;8.41;69.92;99524.63;5046104;28;20137;-53
2022/04/13 07:57:02;;;;;;;12.27;6.40;;;;;;;8.47;69.30;99513.25;5047844;28;20800;-49
2022/04/13 07:59:28;;;;;;;13.90;6.07;;;;;;;8.57;69.46;99519.00;5045912;28;20052;-55
2022/04/13 08:01:54;;;;;;;12.80;5.53;;;;;;;8.66;68.85;99524.75;5047905;28;20430;-53
2022/04/13 08:04:20;;;;;;;11.27;6.38;;;;;;;8.68;68.45;99523.00;5047660;28;20124;-52
2022/04/13 08:06:46;;;;;;;13.00;6.07;;;;;;;8.67;68.54;99525.63;5047778;28;20040;-53
2022/04/13 08:09:12;;;;;;;11.43;5.15;;;;;;;8.72;68.44;99519.41;5046774;28;20053;-54
2022/04/13 08:11:38;;;;;;;12.88;5.78;;;;;;;8.60;68.58;99519.75;5048155;28;20123;-49
2022/04/13 08:14:04;;;;;;;10.10;5.78;;;;;;;8.71;68.44;99533.25;5048049;28;20139;-49
2022/04/13 08:16:29;;;;;;;12.18;5.47;;;;;;;8.70;68.56;99531.53;5047630;28;20128;-52
2022/04/13 08:18:55;;;;;;;10.85;5.57;;;;;;;8.68;68.29;99528.16;5047691;28;20040;-54
2022/04/13 08:21:21;;;;;;;12.48;6.10;;;;;;;8.60;68.58;99524.94;5047651;28;20798;-51
2022/04/13 08:23:47;;;;;;;13.00;7.00;;;;;;;8.69;68.61;99529.84;5046247;28;20106;-51
2022/04/13 08:26:12;;;;;;;12.90;6.13;;;;;;;8.72;68.39;99528.91;5046498;28;20041;-49
2022/04/13 08:28:38;;;;;;;8.93;5.15;;;;;;;8.63;68.00;99517.09;5047617;28;20075;-54
2022/04/13 08:31:04;;;;;;;11.90;5.03;;;;;;;8.70;68.43;99538.47;5079883;28;20142;-52
2022/04/13 08:33:31;;;;;;;10.68;5.35;;;;;;;8.78;68.19;99539.13;5047823;28;20049;-50
2022/04/13 08:35:57;;;;;;;10.63;5.20;;;;;;;8.72;67.60;99540.13;5047993;28;20068;-53
2022/04/13 08:38:23;;;;;;;20.00;5.80;;;;;;;8.71;68.19;99543.63;5046420;28;20076;-51
2022/04/13 08:40:59;;;;;;;9.38;5.22;;;;;;;8.70;68.05;99543.66;5047469;28;20132;-54
2022/04/13 08:43:45;;;;;;;12.98;5.20;;;;;;;8.66;67.86;99542.91;5079837;28;20040;-54
2022/04/13 08:46:15;;;;;;;12.13;5.90;;;;;;;8.55;68.32;99528.56;5046115;28;20618;-51
2022/04/13 08:48:45;;;;;;;12.50;5.18;;;;;;;8.58;68.55;99533.66;5046121;28;20131;-51
2022/04/13 08:51:11;;;;;;;;;;;;;;;8.63;68.60;99537.81;5080020;28;20035;-50
2022/04/13 08:53:40;;;;;;;8.38;4.35;;;;;;;8.64;68.29;99541.22;5046128;28;20035;-50
2022/04/13 08:56:08;;;;;;;13.57;4.97;;;;;;;8.61;68.04;99542.19;5047217;28;20040;-52
2022/04/13 08:58:57;;;;;;;9.40;5.22;;;;;;;8.65;68.44;99548.97;5060823;28;20063;-52
2022/04/13 09:01:32;;;;;;;11.43;4.93;;;;;;;8.66;68.32;99540.31;5047259;28;20053;-55
2022/04/13 09:04:00;;;;;;;11.07;4.95;;;;;;;8.54;68.55;99525.09;5046144;28;20041;-52
2022/04/13 09:06:27;;;;;;;16.17;4.93;;;;;;;8.72;67.97;99553.09;5049608;28;20037;-54
2022/04/13 09:08:54;;;;;;;9.55;4.70;;;;;;;8.72;68.59;99555.69;5082330;28;20075;-54
2022/04/13 09:11:22;;;;;;;10.20;4.85;;;;;;;8.75;68.39;99544.38;5049813;28;20060;-53
2022/04/13 09:13:49;;;;;;;10.07;5.82;;;;;;;8.75;67.92;99555.59;5049887;28;20075;-52
2022/04/13 09:16:15;;;;;;;9.57;5.43;;;;;;;8.80;67.99;99550.25;5049421;28;20513;-54
2022/04/13 09:18:45;;;;;;;11.20;5.15;;;;;;;8.87;67.90;99556.97;5050895;28;20072;-54
2022/04/13 09:21:14;;;;;;;;;;;;;;;8.91;67.62;99556.00;5051274;28;20040;-55
2022/04/13 09:23:40;;;;;;;8.50;5.03;;;;;;;8.96;67.74;99571.41;5051164;28;20304;-53
2022/04/13 09:26:07;;;;;;;11.63;4.68;;;;;;;9.01;67.37;99564.34;5050971;28;20041;-53
2022/04/13 09:28:33;;;;;;;10.07;4.72;;;;;;;9.03;67.50;99563.41;5051141;28;20052;-51
2022/04/13 09:30:59;;;;;;;10.45;5.00;;;;;;;9.08;66.76;99565.88;5049563;28;20424;-51
2022/04/13 09:33:25;;;;;;;11.60;5.15;;;;;;;9.10;67.00;99566.69;5065520;28;20633;-50
2022/04/13 09:35:53;;;;;;;9.23;5.32;;;;;;;9.08;66.55;99566.72;5049490;28;20041;-54
2022/04/13 09:38:19;;;;;;;9.48;4.70;;;;;;;9.11;66.95;99570.94;5050693;28;20045;-51
2022/04/13 09:40:45;;;;;;;9.02;4.97;;;;;;;9.11;66.72;99557.97;5049280;28;20037;-54
2022/04/13 09:43:15;;;;;;;11.27;5.50;;;;;;;9.17;66.56;99571.63;5050525;28;20107;-53
2022/04/13 09:45:45;;;;;;;11.23;5.30;;;;;;;9.08;66.76;99565.88;5049148;28;20041;-52
2022/04/13 09:48:16;;;;;;;15.48;5.53;;;;;;;9.15;66.49;99578.63;5050562;28;20037;-55
2022/04/13 09:50:44;;;;;;;11.55;5.80;;;;;;;9.22;66.68;99566.28;5050649;28;20045;-54
2022/04/13 09:53:11;;;;;;;13.57;6.18;;;;;;;9.24;66.41;99574.88;5050785;28;20095;-54
2022/04/13 09:55:45;;;;;;;17.80;5.75;;;;;;;9.19;66.89;99571.56;5049112;28;20063;-54
2022/04/13 09:58:15;;;;;;;10.95;5.40;;;;;;;9.14;66.59;99574.31;5063681;28;20573;-57
2022/04/13 10:00:42;;;;;;;13.07;5.90;;;;;;;9.13;67.17;99577.81;5050198;28;20087;-55
2022/04/13 10:03:09;;;;;;;12.05;5.60;;;;;;;9.11;67.29;99578.72;5050128;28;20040;-49
2022/04/13 10:05:35;;;;;;;17.20;6.22;;;;;;;9.03;67.02;99580.72;5082452;28;20049;-51
2022/04/13 10:08:02;;;;;;;12.75;5.47;;;;;;;8.99;67.16;99574.78;5048561;28;20037;-52
2022/04/13 10:10:28;;;;;;;12.02;5.50;;;;;;;8.99;67.21;99576.50;5048787;28;20040;-52
2022/04/13 10:12:54;;;;;;;12.60;5.90;;;;;;;8.98;67.36;99582.59;5049853;28;20520;-51
2022/04/13 10:15:20;;;;;;;10.20;5.68;;;;;;;8.93;67.23;99568.03;5082347;28;20047;-50
2022/04/13 10:17:46;;;;;;;16.88;6.20;;;;;;;9.05;67.10;99584.13;5049408;28;20787;-53
2022/04/13 10:20:12;;;;;;;10.27;6.05;;;;;;;9.05;67.55;99573.75;5050133;28;20049;-49
2022/04/13 10:22:58;;;;;;;14.93;5.90;;;;;;;9.10;67.54;99579.66;5048653;28;20048;-49
2022/04/13 10:25:27;;;;;;;17.95;6.07;;;;;;;9.12;67.09;99570.06;5049557;28;20504;-51
2022/04/13 10:27:57;;;;;;;8.82;5.70;;;;;;;9.14;67.54;99579.50;5049691;28;20683;-52
2022/04/13 10:30:34;;;;;;;14.27;6.95;;;;;;;9.11;67.06;99573.53;5049708;28;20045;-50
2022/04/13 10:33:18;;;;;;;11.93;5.90;;;;;;;9.17;67.00;99587.19;5081912;28;20032;-51
2022/04/13 10:35:45;;;;;;;12.88;6.07;;;;;;;9.20;66.87;99589.69;5049690;28;20076;-54
2022/04/13 10:38:12;;;;;;;11.45;6.93;;;;;;;9.23;66.35;99563.66;5049553;28;20095;-54
2022/04/13 10:40:40;;;;;;;11.07;5.85;;;;;;;9.45;66.08;99592.38;5049414;28;20037;-51
2022/04/13 10:43:09;;;;;;;12.68;6.32;;;;;;;9.50;66.16;99593.09;5049832;28;20131;-51
2022/04/13 10:45:38;;;;;;;11.98;6.00;;;;;;;9.52;65.85;99595.63;5031944;28;20045;-49
2022/04/13 10:48:06;;;;;;;10.52;5.55;;;;;;;9.31;66.15;99564.28;5049386;28;20041;-49
2022/04/13 10:50:44;;;;;;;10.18;5.78;;;;;;;9.40;65.92;99598.59;5081455;28;20049;-49
2022/04/13 10:53:26;;;;;;;11.48;5.63;;;;;;;9.34;65.84;99597.06;5049377;28;20094;-53
2022/04/13 10:55:58;;;;;;;12.30;5.40;;;;;;;9.31;66.13;99600.59;5081008;28;20033;-52
2022/04/13 10:59:08;;;;;;;9.20;5.07;;;;;;;9.22;65.95;99593.06;5047392;28;20405;-54
2022/04/13 11:01:45;;;;;;;8.80;4.43;;;;;;;9.05;66.42;99584.97;5046938;28;20063;-51
2022/04/13 11:04:12;;;;;;;8.88;5.10;;;;;;;8.98;66.08;99587.78;5049076;28;20049;-52
2022/04/13 11:06:43;;;;;;;7.60;4.45;;;;;;;9.00;66.61;99597.22;5049056;28;20048;-50
2022/04/13 11:09:17;;;;;;;9.68;4.72;;;;;;;8.94;66.83;99587.03;5080943;28;20044;-50
2022/04/13 11:11:43;;;;;;;7.95;4.32;;;;;;;9.03;67.08;99593.69;5064193;28;20063;-53
2022/04/13 11:14:19;;;;;;;9.00;4.75;;;;;;;9.02;66.86;99592.81;5047742;28;20118;-52
2022/04/13 11:16:44;;;;;;;9.13;4.70;;;;;;;8.92;66.82;99576.69;5048962;28;20033;-51
2022/04/13 11:19:10;;;;;;;8.35;4.43;;;;;;;9.06;67.11;99601.34;5047791;28;20142;-54
2022/04/13 11:21:51;;;;;;;8.75;4.43;;;;;;;9.07;66.51;99595.28;5048541;28;20136;-52
2022/04/13 11:24:38;;;;;;;6.97;4.20;;;;;;;8.91;67.09;99575.00;5047139;28;20512;-53
2022/04/13 11:27:05;;;;;;;5.63;3.97;;;;;;;9.07;66.56;99601.31;5048384;28;20428;-52
2022/04/13 11:29:35;;;;;;;6.75;3.75;;;;;;;9.05;67.00;99605.72;5046466;28;20090;-54
2022/04/13 11:32:01;;;;;;;9.77;4.07;;;;;;;9.02;67.15;99610.97;5030942;28;20044;-50
2022/04/13 11:34:37;;;;;;;5.97;3.63;;;;;;;8.96;67.23;99620.66;5048521;28;20063;-51
2022/04/13 11:37:06;;;;;;;10.77;3.72;;;;;;;8.87;67.22;99614.88;5048840;28;20041;-53
2022/04/13 11:39:48;;;;;;;5.47;3.17;;;;;;;8.84;67.17;99620.16;5030721;28;20798;-52